createdAt,value
2019-01-24T00:00:51.759Z,-3.10
2019-01-24T00:03:20.376Z,-3.60
2019-01-24T00:05:48.858Z,-3.20
2019-01-24T00:08:17.432Z,-3.10
2019-01-24T00:10:45.955Z,-3.10
2019-01-24T00:13:14.487Z,-2.60
2019-01-24T00:15:43.997Z,-3.40
2019-01-24T00:18:12.506Z,-3.40
2019-01-24T00:20:41.042Z,-3.00
2019-01-24T00:23:09.523Z,-3.20
2019-01-24T00:25:38.021Z,-3.10
2019-01-24T00:28:06.486Z,-3.20
2019-01-24T00:30:35.045Z,-2.90
2019-01-24T00:33:03.569Z,-3.10
2019-01-24T00:35:32.056Z,-3.00
2019-01-24T00:38:00.536Z,-2.90
2019-01-24T00:40:29.617Z,-2.30
2019-01-24T00:42:58.153Z,-2.90
2019-01-24T00:45:26.612Z,-2.90
2019-01-24T00:47:55.243Z,-2.80
2019-01-24T00:50:23.778Z,-3.00
2019-01-24T00:52:52.356Z,-2.90
2019-01-24T00:55:20.867Z,-2.90
2019-01-24T00:57:49.400Z,-2.80
2019-01-24T01:00:26.246Z,-2.90
2019-01-24T01:02:54.741Z,-2.90
2019-01-24T01:05:23.403Z,-2.30
2019-01-24T01:07:51.938Z,-3.00
2019-01-24T01:10:20.640Z,-2.90
2019-01-24T01:12:49.226Z,-3.20
2019-01-24T01:17:46.853Z,-3.00
2019-01-24T01:20:17.855Z,-2.80
2019-01-24T01:22:46.502Z,-2.80
2019-01-24T01:25:15.316Z,-2.90
2019-01-24T01:27:44.449Z,-3.00
2019-01-24T01:30:15.948Z,-2.90
2019-01-24T01:32:44.525Z,-2.80
2019-01-24T01:35:13.412Z,-2.90
2019-01-24T01:37:42.597Z,-2.80
2019-01-24T01:40:13.794Z,-3.00
2019-01-24T01:42:43.628Z,-2.80
2019-01-24T01:45:17.258Z,-3.30
2019-01-24T01:47:45.929Z,-2.50
2019-01-24T01:50:19.796Z,-2.80
2019-01-24T01:52:48.408Z,-2.80
2019-01-24T01:55:17.144Z,-2.80
2019-01-24T01:57:45.896Z,-3.00
2019-01-24T02:00:19.650Z,-3.00
2019-01-24T02:02:48.282Z,-3.10
2019-01-24T02:05:16.871Z,-3.10
2019-01-24T02:07:45.486Z,-3.10
2019-01-24T02:10:19.306Z,-3.10
2019-01-24T02:12:47.910Z,-3.10
2019-01-24T02:15:17.414Z,-3.20
2019-01-24T02:17:46.023Z,-3.20
2019-01-24T02:20:22.818Z,-3.20
2019-01-24T02:22:51.991Z,-3.20
2019-01-24T02:25:20.727Z,-3.20
2019-01-24T02:27:49.288Z,-3.20
2019-01-24T02:30:26.183Z,-3.20
2019-01-24T02:32:54.866Z,-3.20
2019-01-24T02:35:24.002Z,-3.20
2019-01-24T02:37:52.545Z,-3.30
2019-01-24T02:40:21.265Z,-3.30
2019-01-24T02:42:49.853Z,-3.30
2019-01-24T02:45:20.655Z,-3.30
2019-01-24T02:47:49.291Z,-3.20
2019-01-24T02:50:22.303Z,-3.30
2019-01-24T02:52:51.121Z,-3.30
2019-01-24T02:55:20.002Z,-3.20
2019-01-24T02:57:48.519Z,-3.10
2019-01-24T03:00:19.638Z,-3.00
2019-01-24T03:02:48.309Z,-2.90
2019-01-24T03:05:19.350Z,-3.00
2019-01-24T03:07:48.402Z,-2.90
2019-01-24T03:10:16.977Z,-2.90
2019-01-24T03:12:45.589Z,-2.80
2019-01-24T03:15:17.004Z,-2.80
2019-01-24T03:17:45.629Z,-2.80
2019-01-24T03:20:16.026Z,-2.90
2019-01-24T03:22:46.042Z,-3.00
2019-01-24T03:25:16.552Z,-3.00
2019-01-24T03:27:45.210Z,-3.00
2019-01-24T03:30:16.246Z,-3.00
2019-01-24T03:32:44.859Z,-3.10
2019-01-24T03:35:15.950Z,-3.10
2019-01-24T03:37:44.522Z,-3.20
2019-01-24T03:40:14.421Z,-3.20
2019-01-24T03:42:43.228Z,-3.20
2019-01-24T03:45:13.921Z,-3.10
2019-01-24T03:47:42.417Z,-3.10
2019-01-24T03:50:15.946Z,-3.10
2019-01-24T03:52:44.836Z,-3.00
2019-01-24T03:55:15.156Z,-3.00
2019-01-24T03:57:43.781Z,-3.00
2019-01-24T04:00:15.592Z,-3.00
2019-01-24T04:02:44.501Z,-3.10
2019-01-24T04:05:13.601Z,-3.30
2019-01-24T04:07:42.195Z,-3.30
2019-01-24T04:10:18.531Z,-3.20
2019-01-24T04:12:47.834Z,-3.10
2019-01-24T04:15:21.725Z,-3.10
2019-01-24T04:17:50.382Z,-3.00
2019-01-24T04:20:19.344Z,-3.00
2019-01-24T04:22:47.811Z,-3.10
2019-01-24T04:25:16.567Z,-3.20
2019-01-24T04:27:45.331Z,-3.20
2019-01-24T04:30:18.684Z,-3.30
2019-01-24T04:32:47.255Z,-3.30
2019-01-24T04:35:19.884Z,-3.20
2019-01-24T04:37:47.267Z,-3.10
2019-01-24T04:40:17.498Z,-3.20
2019-01-24T04:42:45.972Z,-3.10
2019-01-24T04:45:16.085Z,-3.00
2019-01-24T04:47:44.889Z,-3.00
2019-01-24T04:50:17.499Z,-3.00
2019-01-24T04:52:46.322Z,-3.20
2019-01-24T04:55:18.951Z,-3.10
2019-01-24T04:57:47.688Z,-3.20
2019-01-24T05:00:27.415Z,-3.10
2019-01-24T05:02:55.990Z,-3.00
2019-01-24T05:05:27.887Z,-2.90
2019-01-24T05:07:54.943Z,-3.00
2019-01-24T05:10:23.576Z,-3.10
2019-01-24T05:12:52.021Z,-3.10
2019-01-24T05:15:20.727Z,-3.20
2019-01-24T05:17:49.246Z,-3.20
2019-01-24T05:20:17.789Z,-3.30
2019-01-24T05:22:46.350Z,-3.20
2019-01-24T05:25:16.508Z,-3.20
2019-01-24T05:27:45.091Z,-3.10
2019-01-24T05:30:17.067Z,-3.10
2019-01-24T05:32:45.539Z,-3.00
2019-01-24T05:35:14.064Z,-3.00
2019-01-24T05:37:42.549Z,-3.00
2019-01-24T05:40:11.363Z,-3.00
2019-01-24T05:42:39.990Z,-3.00
2019-01-24T05:45:13.785Z,-3.10
2019-01-24T05:47:42.322Z,-3.10
2019-01-24T05:50:11.965Z,-3.20
2019-01-24T05:52:40.482Z,-3.00
2019-01-24T05:55:10.780Z,-3.00
2019-01-24T05:57:39.290Z,-3.10
2019-01-24T06:00:14.544Z,-3.20
2019-01-24T06:02:43.032Z,-3.20
2019-01-24T06:05:12.532Z,-3.30
2019-01-24T06:07:40.982Z,-3.30
2019-01-24T06:10:14.619Z,-3.30
2019-01-24T06:12:43.185Z,-3.30
2019-01-24T06:15:14.555Z,-3.20
2019-01-24T06:17:43.123Z,-3.00
2019-01-24T06:20:11.902Z,-3.00
2019-01-24T06:22:40.420Z,-2.90
2019-01-24T06:25:11.349Z,-0.90
2019-01-24T06:27:39.802Z,-2.80
2019-01-24T06:30:11.374Z,-2.80
2019-01-24T06:32:39.843Z,-3.00
2019-01-24T06:35:08.416Z,-3.10
2019-01-24T06:37:36.865Z,-3.10
2019-01-24T06:40:08.450Z,-3.10
2019-01-24T06:42:37.006Z,-3.20
2019-01-24T06:45:14.135Z,-3.20
2019-01-24T06:47:42.648Z,-3.20
2019-01-24T06:50:13.066Z,-3.20
2019-01-24T06:52:41.728Z,-3.30
2019-01-24T06:55:16.530Z,-3.30
2019-01-24T06:57:45.095Z,-3.10
2019-01-24T07:00:18.196Z,-3.00
2019-01-24T07:02:46.748Z,-3.00
2019-01-24T07:05:15.477Z,-3.00
2019-01-24T07:07:43.928Z,-3.00
2019-01-24T07:10:20.220Z,-2.90
2019-01-24T07:12:48.790Z,-2.70
2019-01-24T07:15:19.845Z,-2.60
2019-01-24T07:17:48.415Z,-2.70
2019-01-24T07:20:18.894Z,-2.90
2019-01-24T07:22:47.481Z,-3.00
2019-01-24T07:25:18.848Z,-3.10
2019-01-24T07:27:47.369Z,-3.10
2019-01-24T07:30:17.456Z,-3.10
2019-01-24T07:32:46.109Z,-3.00
2019-01-24T07:35:16.333Z,-3.00
2019-01-24T07:37:45.151Z,-3.00
2019-01-24T07:40:20.976Z,-3.00
2019-01-24T07:42:49.813Z,-3.10
2019-01-24T07:45:30.328Z,-3.10
2019-01-24T07:47:58.851Z,-3.20
2019-01-24T07:50:27.445Z,-3.20
2019-01-24T07:52:55.981Z,-3.20
2019-01-24T07:55:24.593Z,-3.20
2019-01-24T07:57:53.081Z,-3.20
2019-01-24T08:00:26.917Z,-3.20
2019-01-24T08:02:55.373Z,-3.10
2019-01-24T08:05:25.193Z,-3.10
2019-01-24T08:07:54.031Z,-3.00
2019-01-24T08:10:23.795Z,-2.90
2019-01-24T08:12:52.571Z,-2.80
2019-01-24T08:15:22.073Z,-2.70
2019-01-24T08:17:50.643Z,-2.60
2019-01-24T08:20:26.956Z,-2.40
2019-01-24T08:22:55.416Z,-2.30
2019-01-24T08:25:24.121Z,-2.30
2019-01-24T08:27:52.891Z,-2.20
2019-01-24T08:30:26.559Z,-2.30
2019-01-24T08:32:55.116Z,-2.40
2019-01-24T08:35:23.695Z,-2.40
2019-01-24T08:37:52.261Z,-2.50
2019-01-24T08:40:22.281Z,-2.60
2019-01-24T08:42:50.797Z,-2.50
2019-01-24T08:45:19.407Z,-2.30
2019-01-24T08:47:47.975Z,-2.30
2019-01-24T08:50:20.973Z,-2.20
2019-01-24T08:52:49.476Z,-2.20
2019-01-24T08:55:26.583Z,-2.30
2019-01-24T08:57:55.029Z,-2.20
2019-01-24T09:00:23.592Z,-2.10
2019-01-24T09:02:52.797Z,-2.00
2019-01-24T09:05:21.890Z,-2.10
2019-01-24T09:07:50.462Z,-2.10
2019-01-24T09:10:33.164Z,-2.10
2019-01-24T09:13:01.714Z,-2.00
2019-01-24T09:15:30.236Z,-2.00
2019-01-24T09:17:58.812Z,-2.00
2019-01-24T09:20:27.333Z,-2.00
2019-01-24T09:22:55.827Z,-2.00
2019-01-24T09:25:24.414Z,-1.80
2019-01-24T09:27:52.912Z,-2.00
2019-01-24T09:30:24.272Z,-2.10
2019-01-24T09:32:52.852Z,-2.10
2019-01-24T09:35:21.379Z,-2.10
2019-01-24T09:37:49.918Z,-2.10
2019-01-24T09:40:20.242Z,-2.20
2019-01-24T09:42:48.802Z,-2.30
2019-01-24T09:45:24.877Z,-2.20
2019-01-24T09:47:54.508Z,-2.10
2019-01-24T09:50:25.287Z,-2.10
2019-01-24T09:52:54.029Z,-2.10
2019-01-24T09:55:22.612Z,-2.00
2019-01-24T09:57:51.194Z,-1.90
2019-01-24T10:00:21.907Z,-1.70
2019-01-24T10:02:50.505Z,-1.60
2019-01-24T10:05:19.400Z,-1.50
2019-01-24T10:07:48.001Z,-1.60
2019-01-24T10:10:19.110Z,-1.60
2019-01-24T10:12:47.556Z,-1.70
2019-01-24T10:15:17.892Z,-1.70
2019-01-24T10:17:46.343Z,-1.70
2019-01-24T10:20:17.338Z,-1.70
2019-01-24T10:22:45.792Z,-1.60
2019-01-24T10:25:17.324Z,-1.70
2019-01-24T10:27:45.791Z,-1.90
2019-01-24T10:30:19.308Z,-1.90
2019-01-24T10:32:48.034Z,-1.80
2019-01-24T10:35:16.591Z,-1.80
2019-01-24T10:37:45.433Z,-1.60
2019-01-24T10:40:17.029Z,-1.70
2019-01-24T10:42:45.512Z,-1.80
2019-01-24T10:45:17.022Z,-1.80
2019-01-24T10:47:45.832Z,-1.70
2019-01-24T10:50:16.312Z,-1.70
2019-01-24T10:52:44.823Z,-1.50
2019-01-24T10:55:21.404Z,-1.50
2019-01-24T10:57:50.677Z,-1.30
2019-01-24T11:00:21.762Z,-1.10
2019-01-24T11:02:50.322Z,-1.20
2019-01-24T11:05:20.254Z,-1.30
2019-01-24T11:07:49.160Z,-1.50
2019-01-24T11:10:19.699Z,-1.40
2019-01-24T11:12:48.863Z,-1.40
2019-01-24T11:15:24.720Z,-1.30
2019-01-24T11:17:53.303Z,-1.10
2019-01-24T11:20:22.157Z,-1.00
2019-01-24T11:22:50.856Z,-0.90
2019-01-24T11:25:24.599Z,-0.80
2019-01-24T11:27:53.242Z,-1.00
2019-01-24T11:30:24.214Z,-1.00
2019-01-24T11:32:52.949Z,-0.90
2019-01-24T11:35:24.314Z,-0.70
2019-01-24T11:37:53.423Z,-0.70
2019-01-24T11:40:21.964Z,-0.90
2019-01-24T11:42:50.587Z,-0.80
2019-01-24T11:45:21.993Z,-0.70
2019-01-24T11:47:50.559Z,-0.90
2019-01-24T11:50:19.586Z,-0.80
2019-01-24T11:52:48.051Z,-0.70
2019-01-24T11:55:21.533Z,-0.80
2019-01-24T11:57:50.231Z,-0.70
2019-01-24T12:00:28.985Z,-0.80
2019-01-24T12:02:57.502Z,-0.70
2019-01-24T12:05:26.190Z,-0.60
2019-01-24T12:07:54.771Z,-0.80
2019-01-24T12:10:28.274Z,-1.10
2019-01-24T12:12:56.839Z,-1.20
2019-01-24T12:15:28.001Z,-1.00
2019-01-24T12:17:56.533Z,-0.80
2019-01-24T12:20:25.931Z,-0.80
2019-01-24T12:22:54.651Z,-0.90
2019-01-24T12:25:23.445Z,-0.80
2019-01-24T12:27:52.083Z,-0.60
2019-01-24T12:30:31.991Z,-0.50
2019-01-24T12:33:00.925Z,-0.40
2019-01-24T12:35:29.779Z,-0.30
2019-01-24T12:37:58.496Z,-0.30
2019-01-24T12:40:27.119Z,-0.40
2019-01-24T12:42:55.693Z,-0.60
2019-01-24T12:45:26.398Z,-0.70
2019-01-24T12:47:54.923Z,-0.70
2019-01-24T12:50:23.638Z,-0.70
2019-01-24T12:52:52.277Z,-0.70
2019-01-24T12:55:21.105Z,-0.60
2019-01-24T12:57:49.640Z,-0.60
2019-01-24T13:00:29.402Z,-0.70
2019-01-24T13:02:57.849Z,-0.80
2019-01-24T13:05:26.336Z,-1.00
2019-01-24T13:07:54.933Z,-0.90
2019-01-24T13:10:25.262Z,-0.90
2019-01-24T13:12:53.779Z,-0.80
2019-01-24T13:15:24.696Z,-0.90
2019-01-24T13:17:53.141Z,-1.10
2019-01-24T13:20:21.812Z,-1.20
2019-01-24T13:22:50.266Z,-1.20
2019-01-24T13:25:20.988Z,-1.10
2019-01-24T13:27:50.779Z,-1.10
2019-01-24T13:30:22.071Z,-1.00
2019-01-24T13:32:50.588Z,-1.00
2019-01-24T13:35:19.292Z,-1.00
2019-01-24T13:37:47.862Z,-1.00
2019-01-24T13:40:18.356Z,-1.20
2019-01-24T13:42:46.920Z,-1.10
2019-01-24T13:45:18.354Z,-1.00
2019-01-24T13:47:47.284Z,-0.80
2019-01-24T13:50:17.383Z,-0.60
2019-01-24T13:52:45.833Z,-0.50
2019-01-24T13:55:14.552Z,-0.50
2019-01-24T13:57:43.091Z,-0.80
2019-01-24T14:00:23.164Z,-0.90
2019-01-24T14:02:55.104Z,-0.90
2019-01-24T14:05:23.618Z,-1.00
2019-01-24T14:07:52.091Z,-0.80
2019-01-24T14:10:20.660Z,-0.80
2019-01-24T14:12:49.110Z,-0.70
2019-01-24T14:15:19.110Z,-0.60
2019-01-24T14:17:47.696Z,-0.60
2019-01-24T14:20:20.743Z,-0.60
2019-01-24T14:22:49.716Z,-0.60
2019-01-24T14:25:21.984Z,-0.40
2019-01-24T14:27:50.471Z,-0.30
2019-01-24T14:30:23.912Z,-0.20
2019-01-24T14:32:52.527Z,-0.50
2019-01-24T14:35:21.422Z,-0.50
2019-01-24T14:37:50.433Z,-0.50
2019-01-24T14:40:19.149Z,-0.60
2019-01-24T14:42:47.714Z,-0.70
2019-01-24T14:45:27.359Z,-0.80
2019-01-24T14:47:56.248Z,-0.60
2019-01-24T14:50:30.088Z,-0.60
2019-01-24T14:52:58.641Z,-0.70
2019-01-24T14:55:27.251Z,-0.70
2019-01-24T14:57:55.717Z,-0.70
2019-01-24T15:00:29.765Z,-0.50
2019-01-24T15:02:58.445Z,-0.50
2019-01-24T15:05:27.098Z,-0.60
2019-01-24T15:07:55.752Z,-0.70
2019-01-24T15:10:24.567Z,-0.70
2019-01-24T15:12:53.200Z,-0.60
2019-01-24T15:15:23.023Z,-0.60
2019-01-24T15:17:51.623Z,-0.60
2019-01-24T15:20:20.924Z,-0.50
2019-01-24T15:22:49.537Z,-0.50
2019-01-24T15:27:47.052Z,-0.30
2019-01-24T15:30:19.019Z,-0.60
2019-01-24T15:32:47.747Z,-0.70
2019-01-24T15:35:16.235Z,-0.70
2019-01-24T15:37:44.750Z,-0.40
2019-01-24T15:40:19.229Z,-0.60
2019-01-24T15:42:47.858Z,-0.70
2019-01-24T15:45:17.383Z,-0.60
2019-01-24T15:47:46.270Z,-0.60
2019-01-24T15:50:17.468Z,-0.10
2019-01-24T15:52:46.041Z,-0.50
2019-01-24T15:55:14.769Z,-0.50
2019-01-24T15:57:43.379Z,-0.80
2019-01-24T16:00:23.895Z,-0.80
2019-01-24T16:02:52.576Z,-0.90
2019-01-24T16:05:21.610Z,-1.40
2019-01-24T16:07:51.389Z,-1.30
2019-01-24T16:10:24.806Z,-1.10
2019-01-24T16:12:53.604Z,-1.20
2019-01-24T16:15:24.963Z,-1.70
2019-01-24T16:17:53.682Z,-1.20
2019-01-24T16:20:26.053Z,-1.20
2019-01-24T16:22:55.274Z,-1.20
2019-01-24T16:25:26.259Z,-1.20
2019-01-24T16:27:54.916Z,-1.10
2019-01-24T16:32:55.588Z,-0.40
2019-01-24T16:35:24.219Z,-1.20
2019-01-24T16:37:52.810Z,-1.50
2019-01-24T16:42:51.139Z,-1.40
2019-01-24T16:45:22.236Z,-1.20
2019-01-24T16:47:51.102Z,-1.30
2019-01-24T16:50:21.651Z,-1.40
2019-01-24T16:52:51.202Z,-1.30
2019-01-24T16:55:19.828Z,-1.20
2019-01-24T16:57:49.554Z,-1.20
2019-01-24T17:00:21.146Z,-1.60
2019-01-24T17:02:49.829Z,-1.30
2019-01-24T17:05:18.507Z,-1.50
2019-01-24T17:07:47.626Z,-1.10
2019-01-24T17:12:46.218Z,-1.90
2019-01-24T17:15:18.191Z,-1.40
2019-01-24T17:17:46.966Z,-1.40
2019-01-24T17:20:26.793Z,-1.60
2019-01-24T17:22:55.510Z,-1.50
2019-01-24T17:25:26.027Z,-1.40
2019-01-24T17:27:55.690Z,-1.60
2019-01-24T17:30:29.913Z,-1.50
2019-01-24T17:32:58.699Z,-1.70
2019-01-24T17:35:27.426Z,-2.00
2019-01-24T17:37:56.806Z,-1.70
2019-01-24T17:40:31.943Z,-1.50
2019-01-24T17:43:01.747Z,-1.50
2019-01-24T17:45:32.052Z,-1.50
2019-01-24T17:48:01.393Z,-1.60
2019-01-24T17:50:30.900Z,-1.40
2019-01-24T17:52:59.547Z,-1.30
2019-01-24T17:55:30.865Z,-0.80
2019-01-24T17:58:04.943Z,-1.60
2019-01-24T18:00:35.177Z,-0.90
2019-01-24T18:03:03.972Z,-1.50
2019-01-24T18:05:36.505Z,-1.50
2019-01-24T18:08:05.230Z,-1.90
2019-01-24T18:10:33.967Z,-1.50
2019-01-24T18:13:02.729Z,-1.20
2019-01-24T18:18:01.023Z,-1.50
2019-01-24T18:20:32.677Z,-1.10
2019-01-24T18:23:01.671Z,-1.60
2019-01-24T18:25:30.411Z,-1.30
2019-01-24T18:27:59.083Z,-1.20
2019-01-24T18:30:31.339Z,-1.30
2019-01-24T18:33:01.905Z,-1.40
2019-01-24T18:35:38.447Z,-1.70
2019-01-24T18:38:07.367Z,-1.60
2019-01-24T18:40:37.100Z,-1.60
2019-01-24T18:43:09.106Z,-1.60
2019-01-24T18:45:47.666Z,-1.80
2019-01-24T18:48:16.416Z,-1.70
2019-01-24T18:50:47.843Z,-1.80
2019-01-24T18:53:16.529Z,-1.50
2019-01-24T18:55:47.963Z,-1.40
2019-01-24T18:58:19.306Z,-1.60
2019-01-24T19:00:48.045Z,-1.70
2019-01-24T19:03:19.829Z,-1.70
2019-01-24T19:05:49.467Z,-1.70
2019-01-24T19:08:18.442Z,-1.80
2019-01-24T19:13:19.825Z,-1.80
2019-01-24T19:15:48.695Z,-2.00
2019-01-24T19:20:45.982Z,-1.60
2019-01-24T19:23:16.200Z,-1.70
2019-01-24T19:28:15.098Z,-1.70
2019-01-24T19:30:46.733Z,-1.70
2019-01-24T19:33:15.368Z,-2.10
2019-01-24T19:35:45.502Z,-1.60
2019-01-24T19:38:19.539Z,-1.90
2019-01-24T19:40:49.619Z,-1.30
2019-01-24T19:43:19.538Z,-1.50
2019-01-24T19:45:48.207Z,-1.20
2019-01-24T19:48:19.734Z,-1.80
2019-01-24T19:50:50.113Z,-1.30
2019-01-24T19:53:21.037Z,-1.60
2019-01-24T19:55:53.445Z,-1.80
2019-01-24T19:58:22.026Z,-1.70
2019-01-24T20:00:50.878Z,-1.70
2019-01-24T20:03:20.221Z,-1.90
2019-01-24T20:05:49.359Z,-1.80
2019-01-24T20:08:19.814Z,-1.70
2019-01-24T20:10:48.445Z,-1.50
2019-01-24T20:13:17.538Z,-1.50
2019-01-24T20:15:46.106Z,-1.60
2019-01-24T20:18:18.817Z,-1.60
2019-01-24T20:20:47.610Z,-1.40
2019-01-24T20:23:16.216Z,-1.50
2019-01-24T20:25:45.943Z,-1.70
2019-01-24T20:28:18.140Z,-1.30
2019-01-24T20:30:51.700Z,-1.50
2019-01-24T20:33:24.107Z,-1.70
2019-01-24T20:35:58.134Z,-1.80
2019-01-24T20:38:23.920Z,-2.00
2019-01-24T20:40:52.567Z,-1.80
2019-01-24T20:43:24.174Z,-1.80
2019-01-24T20:45:54.376Z,-2.30
2019-01-24T20:48:22.946Z,-1.70
2019-01-24T20:50:52.346Z,-1.60
2019-01-24T20:53:22.307Z,-1.60
2019-01-24T20:55:50.933Z,-2.20
2019-01-24T20:58:31.379Z,-1.60
2019-01-24T21:01:00.113Z,-1.80
2019-01-24T21:03:29.306Z,-1.80
2019-01-24T21:06:00.919Z,-2.00
2019-01-24T21:08:31.534Z,-1.90
2019-01-24T21:11:00.121Z,-1.80
2019-01-24T21:13:30.414Z,-2.00
2019-01-24T21:18:30.219Z,-1.80
2019-01-24T21:21:00.355Z,-1.40
2019-01-24T21:23:29.867Z,-1.50
2019-01-24T21:25:58.557Z,-2.20
2019-01-24T21:28:27.116Z,-1.70
2019-01-24T21:30:56.295Z,-1.70
2019-01-24T21:33:27.324Z,-1.60
2019-01-24T21:35:56.419Z,-1.70
2019-01-24T21:38:25.133Z,-1.80
2019-01-24T21:43:22.121Z,-1.70
2019-01-24T21:45:52.244Z,-1.90
2019-01-24T21:48:20.949Z,-1.70
2019-01-24T21:50:49.561Z,-1.90
2019-01-24T21:53:18.970Z,-2.10
2019-01-24T21:55:47.575Z,-1.70
2019-01-24T21:58:16.266Z,-1.80
2019-01-24T22:00:44.761Z,-1.40
2019-01-24T22:03:13.339Z,-1.90
2019-01-24T22:05:43.467Z,-1.90
2019-01-24T22:08:13.380Z,-2.00
2019-01-24T22:10:42.105Z,-1.90
2019-01-24T22:13:10.689Z,-2.30
2019-01-24T22:15:39.357Z,-2.30
2019-01-24T22:18:07.985Z,-2.30
2019-01-24T22:23:05.281Z,-2.50
2019-01-24T22:25:34.839Z,-2.50
2019-01-24T22:28:03.605Z,-2.50
2019-01-24T22:30:36.753Z,-2.40
2019-01-24T22:33:06.063Z,-2.60
2019-01-24T22:35:34.573Z,-2.50
2019-01-24T22:38:03.478Z,-2.70
2019-01-24T22:40:32.182Z,-2.70
2019-01-24T22:43:00.643Z,-2.80
2019-01-24T22:47:57.387Z,-2.80
2019-01-24T22:50:26.000Z,-2.40
2019-01-24T22:52:54.635Z,-2.60
2019-01-24T22:55:23.221Z,-2.80
2019-01-24T22:57:51.887Z,-2.40
2019-01-24T23:00:53.054Z,-2.50
2019-01-24T23:03:24.882Z,-2.40
2019-01-24T23:05:53.441Z,-2.60
2019-01-24T23:08:21.987Z,-2.60
2019-01-24T23:10:50.545Z,-2.60
2019-01-24T23:13:19.015Z,-2.50
2019-01-24T23:15:47.650Z,-2.80
2019-01-24T23:18:16.109Z,-2.60
2019-01-24T23:20:44.697Z,-2.80
2019-01-24T23:23:13.161Z,-2.70
2019-01-24T23:25:41.678Z,-2.70
2019-01-24T23:28:10.238Z,-2.80
2019-01-24T23:30:38.707Z,-2.90
2019-01-24T23:33:07.266Z,-2.80
2019-01-24T23:35:35.809Z,-2.90
2019-01-24T23:38:05.012Z,-2.90
2019-01-24T23:40:33.488Z,-2.90
2019-01-24T23:43:02.042Z,-2.80
2019-01-24T23:45:30.640Z,-2.70
2019-01-24T23:47:59.197Z,-2.60
2019-01-24T23:50:27.748Z,-2.60
2019-01-24T23:52:56.255Z,-2.80
2019-01-24T23:55:24.824Z,-2.80
2019-01-24T23:57:53.309Z,-3.00
